Time;durP1;ratioP1;P1;durP2;ratioP2;P2;SDS_P1;SDS_P2;PMS_P1;PMS_P2;Temp;Humidity;BMP_temperature;BMP_pressure;BME280_temperature;BME280_humidity;BME280_pressure;Samples;Min_cycle;Max_cycle;Signal;HPM_P1;HPM_P2
2022/05/12 00:00:40;;;;;;;0.00;0.00;;;19.80;64.70;;;;;;4222748;28;20044;-64
2022/05/12 00:03:03;;;;;;;0.00;0.00;;;19.80;64.60;;;;;;4224391;28;20054;-65
2022/05/12 00:05:25;;;;;;;0.00;0.00;;;19.80;64.60;;;;;;4211794;28;20155;-65
2022/05/12 00:07:48;;;;;;;0.00;0.00;;;19.80;64.70;;;;;;4207949;28;20077;-64
2022/05/12 00:10:14;;;;;;;0.00;0.00;;;19.80;64.80;;;;;;4207485;28;20483;-65
2022/05/12 00:12:37;;;;;;;0.00;0.00;;;19.80;64.60;;;;;;4207625;28;20127;-65
2022/05/12 00:14:59;;;;;;;0.00;0.00;;;19.80;64.80;;;;;;4207288;28;20079;-64
2022/05/12 00:17:20;;;;;;;0.00;0.00;;;19.80;64.80;;;;;;4208122;28;20048;-65
2022/05/12 00:19:43;;;;;;;0.10;0.10;;;19.80;64.80;;;;;;4224419;28;20067;-67
2022/05/12 00:22:05;;;;;;;0.00;0.00;;;19.80;64.80;;;;;;4224108;28;20123;-68
2022/05/12 00:24:27;;;;;;;0.00;0.00;;;19.80;64.70;;;;;;4224335;28;20071;-67
2022/05/12 00:26:51;;;;;;;0.10;0.10;;;19.80;64.80;;;;;;4224173;28;20128;-66
2022/05/12 00:29:14;;;;;;;0.00;0.00;;;19.80;64.70;;;;;;4222748;28;20050;-66
2022/05/12 00:31:38;;;;;;;0.00;0.00;;;19.80;64.70;;;;;;4206334;28;20564;-67
2022/05/12 00:34:00;;;;;;;0.15;0.15;;;19.80;64.60;;;;;;4207406;28;20208;-66
2022/05/12 00:36:23;;;;;;;0.00;0.00;;;19.80;64.80;;;;;;4206291;28;20050;-66
2022/05/12 00:38:45;;;;;;;0.00;0.00;;;19.80;64.60;;;;;;4207775;28;20048;-66
2022/05/12 00:41:08;;;;;;;0.00;0.00;;;19.80;64.60;;;;;;4206878;28;20052;-66
2022/05/12 00:43:38;;;;;;;0.00;0.00;;;19.80;64.80;;;;;;4221955;28;20502;-66
2022/05/12 00:46:00;;;;;;;0.00;0.00;;;19.80;64.80;;;;;;4224562;28;20043;-67
2022/05/12 00:48:22;;;;;;;0.00;0.00;;;19.80;64.80;;;;;;4224841;28;21355;-66
2022/05/12 00:50:45;;;;;;;0.00;0.00;;;19.70;64.80;;;;;;4227234;27;20053;-66
2022/05/12 00:53:11;;;;;;;0.00;0.00;;;19.70;64.70;;;;;;4227305;27;20052;-66
2022/05/12 00:55:35;;;;;;;0.00;0.00;;;19.70;64.80;;;;;;4211266;28;20499;-66
2022/05/12 00:58:00;;;;;;;0.00;0.00;;;19.70;64.90;;;;;;4210540;28;20116;-66
2022/05/12 01:00:24;;;;;;;0.00;0.00;;;19.70;64.70;;;;;;4210201;28;20063;-66
2022/05/12 01:02:50;;;;;;;0.00;0.00;;;19.70;64.70;;;;;;4210906;28;20119;-66
2022/05/12 01:05:14;;;;;;;0.00;0.00;;;19.70;64.80;;;;;;4210013;28;20051;-65
2022/05/12 01:07:36;;;;;;;0.00;0.00;;;19.70;64.90;;;;;;4225289;27;20059;-66
2022/05/12 01:10:00;;;;;;;0.00;0.00;;;19.70;65.00;;;;;;4225527;28;20106;-66
2022/05/12 01:12:24;;;;;;;0.00;0.00;;;19.70;65.00;;;;;;4227336;27;20112;-65
2022/05/12 01:14:46;;;;;;;0.00;0.00;;;19.70;65.00;;;;;;4227229;27;20425;-66
2022/05/12 01:17:10;;;;;;;0.00;0.00;;;19.70;64.90;;;;;;4221042;27;20041;-66
2022/05/12 01:19:35;;;;;;;0.00;0.00;;;19.70;65.00;;;;;;4210153;28;20036;-66
2022/05/12 01:21:58;;;;;;;0.47;0.47;;;19.70;64.90;;;;;;4210236;28;20056;-66
2022/05/12 01:24:24;;;;;;;0.00;0.00;;;19.70;64.80;;;;;;4209911;28;20498;-66
2022/05/12 01:26:47;;;;;;;0.00;0.00;;;19.70;65.00;;;;;;4212481;28;20173;-66
2022/05/12 01:29:10;;;;;;;0.00;0.00;;;19.70;65.00;;;;;;4226824;27;20070;-66
2022/05/12 01:31:32;;;;;;;0.00;0.00;;;19.60;64.80;;;;;;4226955;27;20399;-66
2022/05/12 01:33:55;;;;;;;0.00;0.00;;;19.60;64.80;;;;;;4226780;28;20053;-66
2022/05/12 01:36:17;;;;;;;0.00;0.00;;;19.60;64.80;;;;;;4209881;28;20371;-66
2022/05/12 01:38:39;;;;;;;0.00;0.00;;;19.60;64.90;;;;;;4210091;28;20090;-66
2022/05/12 01:41:02;;;;;;;0.10;0.10;;;19.60;64.80;;;;;;4210173;28;20042;-66
2022/05/12 01:43:24;;;;;;;0.00;0.00;;;19.60;65.00;;;;;;4209618;28;20143;-66
2022/05/12 01:45:46;;;;;;;0.00;0.00;;;19.60;65.00;;;;;;4208499;28;20059;-66
2022/05/12 01:48:11;;;;;;;0.00;0.00;;;19.60;65.00;;;;;;4220017;27;20120;-67
2022/05/12 01:50:33;;;;;;;0.00;0.00;;;19.60;65.00;;;;;;4226598;27;20082;-67
2022/05/12 01:52:55;;;;;;;0.00;0.00;;;19.60;65.00;;;;;;4224988;28;20078;-66
2022/05/12 01:55:19;;;;;;;0.00;0.00;;;19.60;65.00;;;;;;4226954;28;20088;-67
2022/05/12 01:57:43;;;;;;;0.00;0.00;;;19.60;65.00;;;;;;4219796;28;20068;-66
2022/05/12 02:00:07;;;;;;;0.00;0.00;;;19.60;65.00;;;;;;4209404;28;20400;-66
2022/05/12 02:02:31;;;;;;;0.00;0.00;;;19.60;65.10;;;;;;4209112;28;20051;-67
2022/05/12 02:04:53;;;;;;;0.00;0.00;;;19.60;65.00;;;;;;4209202;28;20048;-67
2022/05/12 02:07:16;;;;;;;0.00;0.00;;;19.60;65.10;;;;;;4209681;28;20059;-67
2022/05/12 02:09:38;;;;;;;0.00;0.00;;;19.60;65.10;;;;;;4212235;28;20062;-67
2022/05/12 02:12:00;;;;;;;0.00;0.00;;;19.60;65.10;;;;;;4224558;28;20055;-67
2022/05/12 02:14:23;;;;;;;0.00;0.00;;;19.60;65.10;;;;;;4225862;27;20081;-66
2022/05/12 02:16:45;;;;;;;0.00;0.00;;;19.50;65.00;;;;;;4225899;28;20566;-65
2022/05/12 02:19:09;;;;;;;0.00;0.00;;;19.60;65.20;;;;;;4224701;27;20455;-65
2022/05/12 02:21:32;;;;;;;0.10;0.10;;;19.60;65.20;;;;;;4220387;27;20085;-65
2022/05/12 02:23:54;;;;;;;0.00;0.00;;;19.50;65.10;;;;;;4209001;28;20060;-66
2022/05/12 02:26:16;;;;;;;1.25;0.55;;;19.50;65.10;;;;;;4209644;28;20131;-66
2022/05/12 02:28:39;;;;;;;0.00;0.00;;;19.50;65.20;;;;;;4209166;28;20439;-66
2022/05/12 02:31:02;;;;;;;0.00;0.00;;;19.50;65.10;;;;;;4209593;28;20044;-67
2022/05/12 02:33:25;;;;;;;0.00;0.00;;;19.50;65.20;;;;;;4216371;28;20458;-66
2022/05/12 02:35:47;;;;;;;0.00;0.00;;;19.50;65.20;;;;;;4208927;28;20109;-66
2022/05/12 02:38:10;;;;;;;0.00;0.00;;;19.40;65.20;;;;;;4208995;28;20477;-67
2022/05/12 02:40:33;;;;;;;0.00;0.00;;;19.50;65.20;;;;;;4209004;28;20162;-67
2022/05/12 02:42:55;;;;;;;0.32;0.32;;;19.50;65.20;;;;;;4209106;28;20146;-67
2022/05/12 02:45:18;;;;;;;0.00;0.00;;;19.50;65.20;;;;;;4208617;28;20102;-67
2022/05/12 02:47:42;;;;;;;2.97;1.17;;;19.40;65.20;;;;;;4208373;28;20425;-67
2022/05/12 02:50:06;;;;;;;0.00;0.00;;;19.40;65.30;;;;;;4208327;28;20051;-67
2022/05/12 02:52:28;;;;;;;0.00;0.00;;;19.40;65.20;;;;;;4208496;28;20639;-67
2022/05/12 02:54:49;;;;;;;0.00;0.00;;;19.40;65.20;;;;;;4212159;28;20051;-67
2022/05/12 02:57:11;;;;;;;0.00;0.00;;;19.40;65.20;;;;;;4223973;27;20507;-67
2022/05/12 02:59:34;;;;;;;0.00;0.00;;;19.40;65.30;;;;;;4225866;27;20443;-66
2022/05/12 03:01:57;;;;;;;0.00;0.00;;;19.40;65.30;;;;;;4225859;28;20054;-66
2022/05/12 03:04:21;;;;;;;0.00;0.00;;;19.40;65.30;;;;;;4221386;28;20506;-67
2022/05/12 03:06:43;;;;;;;0.00;0.00;;;19.40;65.30;;;;;;4208675;28;20048;-66
2022/05/12 03:09:06;;;;;;;0.32;0.32;;;19.40;65.40;;;;;;4208645;28;20065;-66
2022/05/12 03:11:28;;;;;;;0.00;0.00;;;19.40;65.40;;;;;;4208478;28;20044;-66
2022/05/12 03:13:50;;;;;;;0.00;0.00;;;19.40;65.40;;;;;;4208105;28;20371;-66
2022/05/12 03:16:13;;;;;;;0.00;0.00;;;19.40;65.40;;;;;;4208362;28;20150;-66
2022/05/12 03:18:35;;;;;;;0.00;0.00;;;19.30;65.40;;;;;;4213986;28;20047;-66
2022/05/12 03:20:59;;;;;;;0.00;0.00;;;19.30;65.40;;;;;;4224200;28;20047;-66
2022/05/12 03:23:22;;;;;;;0.00;0.00;;;19.40;65.50;;;;;;4224736;27;20039;-66
2022/05/12 03:25:44;;;;;;;0.00;0.00;;;19.30;65.40;;;;;;4223776;28;20051;-66
2022/05/12 03:28:06;;;;;;;0.00;0.00;;;19.30;65.40;;;;;;4225223;28;20059;-66
2022/05/12 03:30:28;;;;;;;0.00;0.00;;;19.30;65.50;;;;;;4218783;28;20177;-68
2022/05/12 03:32:51;;;;;;;0.00;0.00;;;19.30;65.50;;;;;;4207738;28;20048;-66
2022/05/12 03:35:13;;;;;;;0.00;0.00;;;19.30;65.50;;;;;;4206734;28;20125;-66
2022/05/12 03:37:37;;;;;;;0.03;0.03;;;19.30;65.50;;;;;;4208592;28;20054;-66
2022/05/12 03:39:59;;;;;;;0.00;0.00;;;19.30;65.60;;;;;;4208382;28;20040;-66
2022/05/12 03:42:22;;;;;;;0.00;0.00;;;19.30;65.60;;;;;;4214653;28;20055;-67
2022/05/12 03:44:50;;;;;;;0.00;0.00;;;19.30;65.60;;;;;;4225649;28;20040;-67
2022/05/12 03:47:14;;;;;;;0.00;0.00;;;19.20;65.60;;;;;;4223543;28;20039;-66
2022/05/12 03:49:36;;;;;;;0.28;0.28;;;19.20;65.60;;;;;;4225172;28;20572;-66
2022/05/12 03:51:58;;;;;;;0.00;0.00;;;19.20;65.60;;;;;;4225019;28;20044;-66
2022/05/12 03:54:21;;;;;;;0.00;0.00;;;19.20;65.60;;;;;;4217027;28;20051;-66
2022/05/12 03:56:43;;;;;;;0.00;0.00;;;19.20;65.60;;;;;;4207148;28;20060;-65
2022/05/12 03:59:06;;;;;;;0.00;0.00;;;19.20;65.70;;;;;;4208235;28;20097;-66
2022/05/12 04:01:28;;;;;;;0.00;0.00;;;19.20;65.70;;;;;;4206994;28;20231;-66
2022/05/12 04:03:51;;;;;;;0.00;0.00;;;19.20;65.70;;;;;;4208066;28;20509;-65
2022/05/12 04:06:14;;;;;;;0.00;0.00;;;19.20;65.70;;;;;;4216465;28;20071;-66
2022/05/12 04:08:36;;;;;;;0.10;0.10;;;19.20;66.60;;;;;;4225128;28;20050;-65
2022/05/12 04:11:00;;;;;;;0.03;0.03;;;19.20;65.80;;;;;;4224482;28;20135;-65
2022/05/12 04:13:22;;;;;;;2.17;1.35;;;19.20;65.80;;;;;;4223359;28;20051;-65
2022/05/12 04:15:45;;;;;;;0.00;0.00;;;19.20;65.80;;;;;;4225127;28;20062;-65
2022/05/12 04:18:07;;;;;;;0.00;0.00;;;19.20;65.80;;;;;;4213303;28;20044;-66
2022/05/12 04:20:32;;;;;;;0.00;0.00;;;19.20;65.80;;;;;;4207968;28;20071;-66
2022/05/12 04:22:54;;;;;;;0.00;0.00;;;19.20;65.80;;;;;;4208214;28;20134;-66
2022/05/12 04:25:16;;;;;;;0.00;0.00;;;19.20;65.80;;;;;;4211177;28;20059;-67
2022/05/12 04:27:41;;;;;;;0.00;0.00;;;19.20;65.80;;;;;;4210783;28;20051;-66
2022/05/12 04:30:05;;;;;;;0.00;0.00;;;19.20;65.70;;;;;;4220579;28;20474;-66
2022/05/12 04:32:27;;;;;;;0.00;0.00;;;19.20;65.70;;;;;;4227739;27;20443;-66
2022/05/12 04:37:45;;;;;;;0.00;0.00;;;19.30;65.60;;;;;;4173947;28;20072;-66
2022/05/12 04:40:10;;;;;;;0.00;0.00;;;19.20;65.50;;;;;;4175243;28;20052;-66
2022/05/12 04:42:32;;;;;;;2.78;1.60;;;19.20;65.50;;;;;;4185085;28;20552;-66
2022/05/12 04:44:56;;;;;;;0.00;0.00;;;19.20;65.50;;;;;;4210320;28;20403;-67
2022/05/12 04:47:17;;;;;;;0.00;0.00;;;19.20;65.50;;;;;;4210310;28;20060;-66
2022/05/12 04:49:39;;;;;;;0.00;0.00;;;19.20;65.50;;;;;;4210592;28;20048;-66
2022/05/12 04:52:02;;;;;;;0.00;0.00;;;19.20;65.40;;;;;;4210549;28;20056;-66
2022/05/12 04:54:24;;;;;;;0.00;0.00;;;19.30;65.50;;;;;;4211377;28;20052;-66
2022/05/12 04:56:46;;;;;;;0.00;0.00;;;19.30;65.50;;;;;;4210837;28;20509;-66
2022/05/12 04:59:10;;;;;;;0.00;0.00;;;19.40;65.50;;;;;;4210258;28;20067;-66
2022/05/12 05:01:34;;;;;;;0.00;0.00;;;19.40;65.30;;;;;;4210293;28;20062;-66
2022/05/12 05:04:00;;;;;;;0.20;0.20;;;19.40;65.10;;;;;;4210705;28;20457;-66
2022/05/12 05:06:22;;;;;;;0.00;0.00;;;19.40;65.00;;;;;;4220692;28;20067;-66
2022/05/12 05:08:43;;;;;;;0.00;0.00;;;19.40;65.00;;;;;;4227327;28;20124;-66
2022/05/12 05:11:06;;;;;;;0.00;0.00;;;19.40;65.00;;;;;;4227012;27;20112;-67
2022/05/12 05:13:28;;;;;;;0.00;0.00;;;19.40;65.00;;;;;;4227387;27;20114;-66
2022/05/12 05:15:52;;;;;;;0.00;0.00;;;19.40;65.10;;;;;;4226719;27;20144;-66
2022/05/12 05:18:17;;;;;;;0.00;0.00;;;19.30;65.00;;;;;;4218331;27;20051;-66
2022/05/12 05:20:39;;;;;;;0.00;0.00;;;19.40;65.10;;;;;;4208483;28;20452;-66
2022/05/12 05:23:01;;;;;;;0.00;0.00;;;19.40;65.20;;;;;;4210665;28;20048;-66
2022/05/12 05:25:23;;;;;;;0.80;0.55;;;19.40;65.10;;;;;;4210430;28;20549;-67
2022/05/12 05:27:47;;;;;;;0.20;0.20;;;19.40;65.00;;;;;;4210635;28;20066;-69
2022/05/12 05:30:13;;;;;;;0.00;0.00;;;19.40;65.00;;;;;;4214860;27;20109;-68
2022/05/12 05:32:35;;;;;;;0.10;0.10;;;19.40;64.90;;;;;;4226844;27;20063;-68
2022/05/12 05:34:58;;;;;;;0.10;0.10;;;19.40;64.80;;;;;;4217643;28;20047;-68
2022/05/12 05:37:20;;;;;;;6.13;1.13;;;19.40;64.90;;;;;;4210031;28;20075;-68
2022/05/12 05:39:42;;;;;;;0.00;0.00;;;19.50;65.00;;;;;;4210161;28;20055;-63
2022/05/12 05:42:07;;;;;;;0.00;0.00;;;19.50;65.50;;;;;;4210202;28;20402;-68
2022/05/12 05:44:32;;;;;;;0.00;0.00;;;19.50;65.80;;;;;;4209325;28;20479;-67
2022/05/12 05:46:54;;;;;;;0.00;0.00;;;19.60;65.40;;;;;;4209685;28;20052;-67
2022/05/12 05:49:17;;;;;;;0.00;0.00;;;19.60;65.00;;;;;;4206316;28;20048;-66
2022/05/12 05:54:20;;;;;;;0.20;0.20;;;19.60;64.50;;;;;;4209418;28;20140;-66
2022/05/12 05:56:43;;;;;;;0.00;0.00;;;19.50;64.40;;;;;;4191267;28;20322;-65
2022/05/12 05:59:05;;;;;;;0.10;0.10;;;19.50;64.30;;;;;;4205310;28;20475;-66
2022/05/12 06:01:27;;;;;;;0.00;0.00;;;19.50;64.30;;;;;;4213246;28;20631;-66
2022/05/12 06:03:49;;;;;;;1.30;1.13;;;19.50;64.20;;;;;;4210021;28;20059;-66
2022/05/12 06:06:11;;;;;;;0.00;0.00;;;19.50;64.00;;;;;;4199925;28;20056;-66
2022/05/12 06:08:35;;;;;;;0.00;0.00;;;19.60;64.00;;;;;;4192852;28;20091;-66
2022/05/12 06:10:59;;;;;;;0.00;0.00;;;19.60;63.90;;;;;;4195360;28;20048;-66
2022/05/12 06:13:21;;;;;;;0.00;0.00;;;19.60;63.80;;;;;;4209141;28;20048;-66
2022/05/12 06:15:44;;;;;;;0.00;0.00;;;19.50;63.70;;;;;;4209600;28;20044;-66
2022/05/12 06:18:07;;;;;;;0.00;0.00;;;19.60;63.60;;;;;;4209720;28;20052;-67
2022/05/12 06:20:33;;;;;;;0.00;0.00;;;19.60;63.60;;;;;;4208848;28;20052;-66
2022/05/12 06:22:55;;;;;;;0.00;0.00;;;19.60;63.40;;;;;;4207888;28;20052;-66
2022/05/12 06:25:19;;;;;;;0.00;0.00;;;19.60;63.40;;;;;;4192673;28;20051;-66
2022/05/12 06:27:41;;;;;;;0.00;0.00;;;19.60;63.30;;;;;;4192195;28;20044;-66
2022/05/12 06:30:06;;;;;;;0.05;0.05;;;19.60;63.30;;;;;;4191183;28;20068;-65
2022/05/12 06:32:30;;;;;;;0.00;0.00;;;19.60;63.30;;;;;;4193648;28;20154;-65
2022/05/12 06:34:51;;;;;;;0.00;0.00;;;19.60;63.30;;;;;;4206518;28;20367;-65
2022/05/12 06:37:14;;;;;;;0.00;0.00;;;19.60;63.30;;;;;;4217327;27;20059;-65
2022/05/12 06:39:37;;;;;;;0.10;0.10;;;19.60;63.10;;;;;;4193464;28;20052;-66
2022/05/12 06:42:01;;;;;;;0.00;0.00;;;19.60;63.10;;;;;;4208417;28;20513;-65
2022/05/12 06:44:35;;;;;;;0.00;0.00;;;19.60;62.80;;;;;;4189956;28;20056;-65
2022/05/12 06:46:58;;;;;;;0.00;0.00;;;19.70;62.80;;;;;;4191620;28;20054;-65
2022/05/12 06:49:20;;;;;;;0.20;0.20;;;19.70;62.60;;;;;;4192099;28;20159;-65
2022/05/12 06:51:43;;;;;;;0.00;0.00;;;19.70;62.40;;;;;;4191751;28;20059;-64
2022/05/12 06:54:04;;;;;;;0.40;0.38;;;19.80;62.20;;;;;;4219963;27;20067;-64
2022/05/12 06:56:27;;;;;;;0.22;0.22;;;19.90;62.10;;;;;;4222483;27;20112;-64
2022/05/12 06:58:51;;;;;;;0.00;0.00;;;19.90;61.90;;;;;;4213332;27;20070;-64
2022/05/12 07:01:13;;;;;;;0.00;0.00;;;19.90;61.60;;;;;;4223969;28;20505;-65
2022/05/12 07:03:35;;;;;;;0.00;0.00;;;20.00;61.40;;;;;;4214439;28;20086;-64
2022/05/12 07:05:58;;;;;;;0.32;0.32;;;20.00;61.10;;;;;;4208290;28;20117;-64
2022/05/12 07:08:21;;;;;;;0.00;0.00;;;20.10;60.90;;;;;;4208632;28;20134;-64
2022/05/12 07:10:43;;;;;;;0.00;0.00;;;20.20;60.90;;;;;;4208535;28;20128;-64
2022/05/12 07:13:06;;;;;;;0.00;0.00;;;20.20;60.60;;;;;;4207153;28;20054;-64
2022/05/12 07:15:29;;;;;;;0.00;0.00;;;20.20;61.20;;;;;;4208538;28;20094;-64
2022/05/12 07:17:53;;;;;;;0.32;0.32;;;20.30;60.00;;;;;;4207881;28;20048;-64
2022/05/12 07:28:16;;;;;;;0.47;0.47;;;20.40;59.00;;;;;;4225126;28;20059;-65
2022/05/12 07:33:15;;;;;;;0.00;0.00;;;20.40;58.70;;;;;;4223650;28;20386;-63
2022/05/12 07:35:37;;;;;;;0.95;0.95;;;20.40;58.70;;;;;;4210721;28;20374;-66
2022/05/12 07:37:59;;;;;;;0.00;0.00;;;20.40;58.70;;;;;;4208856;28;20055;-66
2022/05/12 07:40:22;;;;;;;0.00;0.00;;;20.40;59.30;;;;;;4208550;28;20052;-66
2022/05/12 07:42:44;;;;;;;0.00;0.00;;;20.40;58.70;;;;;;4208339;28;20066;-65
2022/05/12 07:45:08;;;;;;;0.00;0.00;;;20.50;58.70;;;;;;4208271;28;20044;-64
2022/05/12 07:47:31;;;;;;;0.00;0.00;;;20.40;58.50;;;;;;4207917;28;20044;-66
2022/05/12 07:49:54;;;;;;;0.00;0.00;;;20.50;58.40;;;;;;4208301;28;20113;-65
2022/05/12 07:52:16;;;;;;;2.90;0.93;;;20.50;58.50;;;;;;4208073;28;20044;-65
2022/05/12 07:54:38;;;;;;;0.00;0.00;;;20.50;58.30;;;;;;4207759;28;20056;-65
2022/05/12 07:57:01;;;;;;;0.15;0.15;;;20.50;58.20;;;;;;4208421;28;20048;-70
2022/05/12 07:59:23;;;;;;;0.00;0.00;;;20.50;58.30;;;;;;4210278;28;20067;-66
2022/05/12 08:01:45;;;;;;;0.00;0.00;;;20.50;58.40;;;;;;4211610;28;20060;-64
2022/05/12 08:04:09;;;;;;;0.00;0.00;;;20.50;58.60;;;;;;4210758;28;20046;-64
2022/05/12 08:06:33;;;;;;;0.00;0.00;;;20.50;58.40;;;;;;4211401;28;20074;-65
2022/05/12 08:08:55;;;;;;;0.00;0.00;;;20.50;58.20;;;;;;4211527;28;20055;-65
2022/05/12 08:11:18;;;;;;;4.70;0.80;;;20.50;58.20;;;;;;4211143;28;20421;-65
2022/05/12 08:13:42;;;;;;;0.35;0.35;;;20.60;58.10;;;;;;4210736;28;20123;-65
2022/05/12 08:16:06;;;;;;;0.15;0.15;;;20.60;58.00;;;;;;4211101;28;20072;-65
2022/05/12 08:18:28;;;;;;;0.30;0.30;;;20.50;58.00;;;;;;4212096;28;20472;-66
2022/05/12 08:20:52;;;;;;;0.00;0.00;;;20.50;58.00;;;;;;4211080;28;20447;-65
2022/05/12 08:23:15;;;;;;;0.45;0.28;;;20.60;58.10;;;;;;4222516;28;20043;-66
2022/05/12 08:25:38;;;;;;;0.60;0.45;;;20.60;58.20;;;;;;4218811;27;20051;-65
2022/05/12 08:28:00;;;;;;;0.00;0.00;;;20.60;57.80;;;;;;4211617;28;20056;-66
2022/05/12 08:30:22;;;;;;;0.00;0.00;;;20.60;57.60;;;;;;4210620;28;20070;-66
2022/05/12 08:32:44;;;;;;;0.20;0.20;;;20.60;57.30;;;;;;4211242;28;20048;-66
2022/05/12 08:35:07;;;;;;;0.00;0.00;;;20.60;57.10;;;;;;4210216;28;20512;-66
2022/05/12 08:37:31;;;;;;;0.05;0.05;;;20.70;56.90;;;;;;4210340;28;20113;-66
2022/05/12 08:39:54;;;;;;;0.00;0.00;;;20.70;57.40;;;;;;4210722;28;20052;-64
2022/05/12 08:42:24;;;;;;;0.00;0.00;;;20.70;56.60;;;;;;4210780;28;20036;-65
2022/05/12 08:44:47;;;;;;;0.00;0.00;;;20.70;56.50;;;;;;4210230;28;20046;-66
2022/05/12 08:47:14;;;;;;;0.00;0.00;;;20.70;56.40;;;;;;4210875;28;20539;-66
2022/05/12 08:49:41;;;;;;;0.30;0.30;;;20.70;56.20;;;;;;4210637;28;20044;-66
2022/05/12 08:52:14;;;;;;;0.00;0.00;;;20.80;56.00;;;;;;4210548;28;20036;-66
2022/05/12 08:54:42;;;;;;;0.00;0.00;;;20.80;56.80;;;;;;4209440;28;20461;-65
2022/05/12 08:57:06;;;;;;;0.10;0.10;;;20.80;56.30;;;;;;4211207;28;20081;-66
2022/05/12 08:59:28;;;;;;;0.00;0.00;;;20.80;55.80;;;;;;4210422;28;20052;-64
2022/05/12 09:02:00;;;;;;;0.00;0.00;;;20.80;55.60;;;;;;4221682;28;20055;-65
2022/05/12 09:04:37;;;;;;;0.10;0.10;;;20.70;55.40;;;;;;4216207;27;20055;-66
2022/05/12 09:07:07;;;;;;;0.00;0.00;;;20.70;55.30;;;;;;4213419;28;20051;-65
2022/05/12 09:09:34;;;;;;;0.00;0.00;;;20.70;55.40;;;;;;4227090;27;20061;-65
2022/05/12 09:12:08;;;;;;;0.00;0.00;;;20.70;55.40;;;;;;4225220;27;20066;-65
2022/05/12 09:14:36;;;;;;;0.00;0.00;;;20.70;55.30;;;;;;4226793;27;20083;-66
2022/05/12 09:17:03;;;;;;;0.00;0.00;;;20.70;55.30;;;;;;4195673;28;20149;-66
2022/05/12 09:19:26;;;;;;;0.10;0.10;;;20.70;55.50;;;;;;4226957;28;20671;-66
2022/05/12 09:21:49;;;;;;;0.00;0.00;;;20.60;55.40;;;;;;4226843;27;20046;-66
2022/05/12 09:24:11;;;;;;;0.00;0.00;;;20.60;55.30;;;;;;4221867;27;20081;-65
2022/05/12 09:26:43;;;;;;;0.00;0.00;;;20.60;55.20;;;;;;4222975;27;20066;-65
2022/05/12 09:29:16;;;;;;;0.10;0.10;;;20.60;55.10;;;;;;4192120;28;20523;-66
2022/05/12 09:31:40;;;;;;;0.00;0.00;;;20.60;55.00;;;;;;4193495;28;20040;-66
2022/05/12 09:34:16;;;;;;;0.00;0.00;;;20.60;55.00;;;;;;4226694;27;20051;-65
2022/05/12 09:36:38;;;;;;;0.90;0.90;;;20.70;55.70;;;;;;4220782;28;20048;-65
2022/05/12 09:39:05;;;;;;;0.00;0.00;;;20.70;55.00;;;;;;4220947;27;20411;-65
2022/05/12 09:41:38;;;;;;;0.00;0.00;;;20.80;55.00;;;;;;4225235;27;20162;-66
2022/05/12 09:44:15;;;;;;;0.28;0.28;;;20.80;55.00;;;;;;4221783;28;20048;-66
2022/05/12 09:46:37;;;;;;;0.00;0.00;;;20.80;54.80;;;;;;4227029;28;20108;-66
2022/05/12 09:49:18;;;;;;;0.00;0.00;;;20.80;54.40;;;;;;4214451;27;20056;-66
2022/05/12 09:51:40;;;;;;;0.00;0.00;;;20.80;54.30;;;;;;4199311;28;20483;-66
2022/05/12 09:54:20;;;;;;;2.17;1.85;;;20.80;55.00;;;;;;4209084;28;20475;-66
2022/05/12 09:56:46;;;;;;;0.00;0.00;;;20.90;54.30;;;;;;4209518;28;20436;-65
2022/05/12 09:59:20;;;;;;;0.00;0.00;;;20.90;54.10;;;;;;4224445;27;20467;-66
2022/05/12 10:01:51;;;;;;;0.00;0.00;;;20.90;53.90;;;;;;4209628;28;20051;-65
2022/05/12 10:10:07;;;;;;;0.00;0.00;;;21.10;53.20;;;;;;4152179;28;20056;-66
2022/05/12 10:12:37;;;;;;;0.00;0.00;;;21.10;53.20;;;;;;4152798;28;20079;-65
2022/05/12 10:15:08;;;;;;;0.00;0.00;;;21.10;53.40;;;;;;4166701;28;20079;-66
2022/05/12 10:17:36;;;;;;;0.15;0.15;;;21.10;53.50;;;;;;4192236;28;20056;-65
2022/05/12 10:20:08;;;;;;;0.00;0.00;;;21.10;53.50;;;;;;4217283;27;20069;-65
2022/05/12 10:22:34;;;;;;;0.00;0.00;;;21.20;53.60;;;;;;4225615;28;20059;-65
2022/05/12 10:25:07;;;;;;;0.00;0.00;;;21.20;53.60;;;;;;4221007;28;20459;-64
2022/05/12 10:27:41;;;;;;;0.00;0.00;;;21.20;53.40;;;;;;4225926;27;20510;-65
2022/05/12 10:30:19;;;;;;;0.10;0.10;;;21.20;53.20;;;;;;4214808;28;20044;-65
2022/05/12 10:32:49;;;;;;;0.00;0.00;;;21.30;53.20;;;;;;4195139;28;20151;-65
2022/05/12 10:35:18;;;;;;;0.00;0.00;;;21.30;53.10;;;;;;4202261;28;20044;-64
2022/05/12 10:37:51;;;;;;;0.00;0.00;;;21.30;53.00;;;;;;4208983;28;20048;-65
2022/05/12 10:40:25;;;;;;;0.00;0.00;;;21.30;53.00;;;;;;4211659;28;20051;-65
2022/05/12 10:42:57;;;;;;;0.00;0.00;;;21.30;52.90;;;;;;4208823;28;20387;-65
2022/05/12 10:45:26;;;;;;;0.00;0.00;;;21.30;52.90;;;;;;4217243;28;20055;-65
2022/05/12 10:48:03;;;;;;;0.00;0.00;;;21.30;52.90;;;;;;4225305;28;20048;-64
2022/05/12 10:50:30;;;;;;;0.00;0.00;;;21.30;52.70;;;;;;4202810;28;20058;-64
2022/05/12 10:53:02;;;;;;;0.00;0.00;;;21.30;52.80;;;;;;4207140;28;20055;-67
2022/05/12 10:55:34;;;;;;;0.00;0.00;;;21.30;52.50;;;;;;4209521;28;20450;-66
2022/05/12 10:58:08;;;;;;;0.00;0.00;;;21.30;52.70;;;;;;4190036;28;20442;-66
2022/05/12 11:00:48;;;;;;;0.60;0.60;;;21.30;52.70;;;;;;4214140;27;20109;-65
2022/05/12 11:03:18;;;;;;;0.00;0.00;;;21.30;52.80;;;;;;4224389;27;20093;-65
2022/05/12 11:05:46;;;;;;;0.00;0.00;;;21.30;52.80;;;;;;4209682;28;20108;-65
2022/05/12 11:08:13;;;;;;;0.00;0.00;;;21.30;52.70;;;;;;4207147;28;20423;-64
2022/05/12 11:10:41;;;;;;;0.00;0.00;;;21.30;52.80;;;;;;4218218;28;20108;-65
2022/05/12 11:13:12;;;;;;;0.00;0.00;;;21.30;52.70;;;;;;4224713;27;20046;-64
2022/05/12 11:15:47;;;;;;;0.10;0.10;;;21.30;52.70;;;;;;4198949;28;20047;-65
2022/05/12 11:18:17;;;;;;;0.28;0.28;;;21.30;53.20;;;;;;4225376;27;20051;-63
2022/05/12 11:20:44;;;;;;;0.52;0.52;;;21.30;52.40;;;;;;4215451;27;20048;-65
2022/05/12 11:23:16;;;;;;;0.63;0.63;;;21.30;52.70;;;;;;4224280;28;20126;-65
2022/05/12 11:25:47;;;;;;;0.00;0.00;;;21.30;52.50;;;;;;4196560;28;20463;-64
2022/05/12 11:31:08;;;;;;;0.00;0.00;;;21.30;52.40;;;;;;4220096;28;20058;-65
2022/05/12 11:33:34;;;;;;;0.00;0.00;;;21.30;52.90;;;;;;4224472;28;20116;-65
2022/05/12 11:35:56;;;;;;;0.00;0.00;;;21.30;52.30;;;;;;4211673;28;20564;-64
2022/05/12 11:38:45;;;;;;;0.00;0.00;;;21.30;52.10;;;;;;4208516;28;20047;-64
2022/05/12 11:41:08;;;;;;;0.03;0.03;;;21.30;52.10;;;;;;4217355;28;20047;-65
2022/05/12 11:46:25;;;;;;;0.00;0.00;;;21.40;52.10;;;;;;4211489;28;20047;-65
2022/05/12 11:48:56;;;;;;;0.10;0.10;;;21.40;52.10;;;;;;4223583;28;20044;-65
2022/05/12 11:51:35;;;;;;;0.00;0.00;;;21.40;52.00;;;;;;4222908;28;20130;-64
2022/05/12 11:54:01;;;;;;;5.53;1.25;;;21.40;52.10;;;;;;4224836;28;20119;-64
2022/05/12 11:56:44;;;;;;;0.75;0.75;;;21.40;52.00;;;;;;4224892;28;20048;-63
2022/05/12 11:59:36;;;;;;;2.28;1.15;;;21.50;51.90;;;;;;4189904;28;20082;-64
2022/05/12 12:02:03;;;;;;;0.00;0.00;;;21.50;51.90;;;;;;4191650;28;20128;-65
2022/05/12 12:04:50;;;;;;;0.25;0.25;;;21.50;51.80;;;;;;4194935;28;20103;-66
2022/05/12 12:07:37;;;;;;;0.00;0.00;;;21.50;51.80;;;;;;4209012;28;20052;-65
2022/05/12 12:10:06;;;;;;;0.00;0.00;;;21.50;51.70;;;;;;4206819;28;20211;-65
2022/05/12 12:12:52;;;;;;;0.00;0.00;;;21.50;51.60;;;;;;4207439;28;20136;-65
2022/05/12 12:16:04;;;;;;;0.00;0.00;;;21.50;51.60;;;;;;4208003;28;20056;-65
2022/05/12 12:19:03;;;;;;;0.00;0.00;;;21.50;51.60;;;;;;4208980;28;20132;-65
2022/05/12 12:21:53;;;;;;;0.00;0.00;;;21.50;51.50;;;;;;4207569;28;20423;-65
2022/05/12 12:24:50;;;;;;;0.10;0.10;;;21.50;51.50;;;;;;4207449;28;20081;-65
2022/05/12 12:27:28;;;;;;;0.00;0.00;;;21.50;52.10;;;;;;4210792;28;20048;-66
2022/05/12 12:29:51;;;;;;;0.00;0.00;;;21.60;51.50;;;;;;4224576;28;20058;-66
2022/05/12 12:32:29;;;;;;;0.00;0.00;;;21.50;51.40;;;;;;4224315;28;20502;-66
2022/05/12 12:34:55;;;;;;;0.00;0.00;;;21.50;51.30;;;;;;4214845;28;20054;-66
2022/05/12 12:37:43;;;;;;;0.00;0.00;;;21.50;51.40;;;;;;4190913;28;20044;-67
2022/05/12 12:40:44;;;;;;;0.00;0.00;;;21.60;51.50;;;;;;4189522;28;20468;-67
2022/05/12 12:43:17;;;;;;;0.00;0.00;;;21.60;51.50;;;;;;4190892;28;20043;-68
2022/05/12 12:45:47;;;;;;;0.00;0.00;;;21.60;51.30;;;;;;4225230;27;20528;-67
2022/05/12 12:48:13;;;;;;;0.00;0.00;;;21.60;51.20;;;;;;4227285;27;20184;-67
2022/05/12 12:50:43;;;;;;;0.00;0.00;;;21.60;51.30;;;;;;4227593;27;20051;-67
2022/05/12 12:53:05;;;;;;;0.00;0.00;;;21.60;51.30;;;;;;4227306;27;20390;-67
2022/05/12 12:58:14;;;;;;;0.00;0.00;;;21.60;51.30;;;;;;4227210;28;20104;-67
2022/05/12 13:00:38;;;;;;;0.00;0.00;;;21.60;51.20;;;;;;4227545;27;20405;-67
2022/05/12 13:03:02;;;;;;;0.00;0.00;;;21.60;51.00;;;;;;4227389;27;20039;-67
2022/05/12 13:05:25;;;;;;;0.00;0.00;;;21.70;51.00;;;;;;4211287;28;20051;-67
2022/05/12 13:07:57;;;;;;;0.00;0.00;;;21.70;51.00;;;;;;4210465;28;20047;-67
2022/05/12 13:10:19;;;;;;;0.00;0.00;;;21.70;51.00;;;;;;4209131;28;20105;-67